createdAt,value
2019-04-21T00:02:19.493Z,7.30
2019-04-21T00:04:57.942Z,7.30
2019-04-21T00:07:39.289Z,7.20
2019-04-21T00:10:12.173Z,7.10
2019-04-21T00:12:49.452Z,7.00
2019-04-21T00:15:09.698Z,7.00
2019-04-21T00:17:35.007Z,6.90
2019-04-21T00:20:20.472Z,6.80
2019-04-21T00:22:54.650Z,6.80
2019-04-21T00:25:32.359Z,6.70
2019-04-21T00:28:09.192Z,6.60
2019-04-21T00:30:44.438Z,6.60
2019-04-21T00:33:05.271Z,6.60
2019-04-21T00:35:30.818Z,6.50
2019-04-21T00:38:25.115Z,6.50
2019-04-21T00:41:00.410Z,6.50
2019-04-21T00:43:23.373Z,6.40
2019-04-21T00:45:51.796Z,6.40
2019-04-21T00:48:34.456Z,6.40
2019-04-21T00:54:01.306Z,6.30
2019-04-21T00:56:23.257Z,6.20
2019-04-21T00:58:59.749Z,6.20
2019-04-21T01:01:25.271Z,6.10
2019-04-21T01:04:04.836Z,6.00
2019-04-21T01:06:38.310Z,6.00
2019-04-21T01:09:07.640Z,5.90
2019-04-21T01:11:44.219Z,5.90
2019-04-21T01:14:20.067Z,5.80
2019-04-21T01:16:51.681Z,5.80
2019-04-21T01:19:17.293Z,5.80
2019-04-21T01:21:32.383Z,5.80
2019-04-21T01:24:11.781Z,5.80
2019-04-21T01:26:49.042Z,5.70
2019-04-21T01:29:34.290Z,5.70
2019-04-21T01:32:10.468Z,5.70
2019-04-21T01:34:39.321Z,5.60
2019-04-21T01:37:04.085Z,5.60
2019-04-21T01:39:51.347Z,5.60
2019-04-21T01:42:18.622Z,5.50
2019-04-21T01:44:46.139Z,5.40
2019-04-21T01:47:17.475Z,5.40
2019-04-21T01:49:43.116Z,5.30
2019-04-21T01:52:38.661Z,5.20
2019-04-21T01:55:25.002Z,5.20
2019-04-21T01:58:01.454Z,5.10
2019-04-21T02:00:54.370Z,5.00
2019-04-21T02:03:50.169Z,5.00
2019-04-21T02:06:09.493Z,4.90
2019-04-21T02:08:31.291Z,4.90
2019-04-21T02:11:13.879Z,4.90
2019-04-21T02:13:46.861Z,4.80
2019-04-21T02:16:16.941Z,4.80
2019-04-21T02:18:53.009Z,4.70
2019-04-21T02:21:17.873Z,4.70
2019-04-21T02:23:59.049Z,4.60
2019-04-21T02:29:10.702Z,4.50
2019-04-21T02:31:46.801Z,4.50
2019-04-21T02:34:17.379Z,4.50
2019-04-21T02:39:27.973Z,4.40
2019-04-21T02:44:39.311Z,4.30
2019-04-21T02:47:07.041Z,4.30
2019-04-21T02:50:00.327Z,4.20
2019-04-21T02:52:31.345Z,4.20
2019-04-21T02:57:17.934Z,4.20
2019-04-21T02:59:59.613Z,4.10
2019-04-21T03:02:52.575Z,4.00
2019-04-21T03:05:41.729Z,4.00
2019-04-21T03:08:15.420Z,3.90
2019-04-21T03:13:17.468Z,3.90
2019-04-21T03:18:19.593Z,3.80
2019-04-21T03:20:54.328Z,3.70
2019-04-21T03:23:33.662Z,3.70
2019-04-21T03:25:52.181Z,3.70
2019-04-21T03:28:32.422Z,3.60
2019-04-21T03:31:19.638Z,3.60
2019-04-21T03:41:10.760Z,3.60
2019-04-21T03:43:44.654Z,3.60
2019-04-21T03:46:23.095Z,3.50
2019-04-21T03:48:58.255Z,3.50
2019-04-21T03:53:55.798Z,3.40
2019-04-21T03:56:53.366Z,3.30
2019-04-21T03:59:11.583Z,3.30
2019-04-21T04:01:57.771Z,3.20
2019-04-21T04:04:44.157Z,3.20
2019-04-21T04:07:50.176Z,3.10
2019-04-21T04:10:13.949Z,3.10
2019-04-21T04:12:52.625Z,3.00
2019-04-21T04:17:54.565Z,3.00
2019-04-21T04:20:28.037Z,3.00
2019-04-21T04:23:03.341Z,3.00
2019-04-21T04:25:33.806Z,3.00
2019-04-21T04:33:21.074Z,3.00
2019-04-21T04:36:01.372Z,3.00
2019-04-21T04:38:36.117Z,3.10
2019-04-21T04:43:54.461Z,3.20
2019-04-21T04:46:27.820Z,3.20
2019-04-21T04:49:04.801Z,3.30
2019-04-21T04:51:58.569Z,3.40
2019-04-21T04:53:52.945Z,3.40
2019-04-21T04:56:38.795Z,3.50
2019-04-21T05:01:53.263Z,3.70
2019-04-21T05:04:20.562Z,3.80
2019-04-21T05:11:50.830Z,4.10
2019-04-21T05:14:35.454Z,4.10
2019-04-21T05:19:34.759Z,4.30
2019-04-21T05:24:28.910Z,4.50
2019-04-21T05:26:59.546Z,4.60
2019-04-21T05:29:49.146Z,4.70
2019-04-21T05:32:29.894Z,4.90
2019-04-21T05:35:01.598Z,5.00
2019-04-21T05:37:42.897Z,5.10
2019-04-21T05:40:20.079Z,5.30
2019-04-21T05:42:52.954Z,5.40
2019-04-21T05:45:47.679Z,5.60
2019-04-21T05:48:17.860Z,5.70
2019-04-21T05:50:40.017Z,5.90
2019-04-21T05:53:24.307Z,6.10
2019-04-21T05:58:30.138Z,6.50
2019-04-21T06:01:15.048Z,6.70
2019-04-21T06:06:18.386Z,7.10
2019-04-21T06:08:54.059Z,7.30
2019-04-21T06:11:22.200Z,7.50
2019-04-21T06:13:55.045Z,7.70
2019-04-21T06:16:21.494Z,7.90
2019-04-21T06:21:28.057Z,8.30
2019-04-21T06:23:57.313Z,8.50
2019-04-21T06:26:50.390Z,8.70
2019-04-21T06:29:06.931Z,8.90
2019-04-21T06:34:20.834Z,9.30
2019-04-21T06:37:05.837Z,9.50
2019-04-21T06:39:40.515Z,9.80
2019-04-21T06:42:05.280Z,10.00
2019-04-21T06:44:38.804Z,10.40
2019-04-21T06:47:17.689Z,10.60
2019-04-21T06:49:44.280Z,10.90
2019-04-21T06:52:44.876Z,11.20
2019-04-21T06:54:56.053Z,11.50
2019-04-21T06:57:28.726Z,11.80
2019-04-21T06:59:57.186Z,12.20
2019-04-21T07:02:43.876Z,12.50
2019-04-21T07:05:15.398Z,12.90
2019-04-21T07:07:41.880Z,13.20
2019-04-21T07:10:16.955Z,13.50
2019-04-21T07:12:43.003Z,13.80
2019-04-21T07:15:19.217Z,14.10
2019-04-21T07:17:45.644Z,14.50
2019-04-21T07:20:21.766Z,14.90
2019-04-21T07:22:59.499Z,15.30
2019-04-21T07:25:32.691Z,15.70
2019-04-21T07:28:21.912Z,16.00
2019-04-21T07:30:37.174Z,16.40
2019-04-21T07:35:37.313Z,16.90
2019-04-21T07:38:14.679Z,17.10
2019-04-21T07:40:42.907Z,17.40
2019-04-21T07:43:13.137Z,17.60
2019-04-21T07:45:44.670Z,17.90
2019-04-21T07:48:36.180Z,18.20
2019-04-21T07:51:15.419Z,18.30
2019-04-21T07:53:56.984Z,18.60
2019-04-21T07:56:09.331Z,18.60
2019-04-21T07:59:02.115Z,18.80
2019-04-21T08:01:30.519Z,19.00
2019-04-21T08:04:16.542Z,19.20
2019-04-21T08:06:44.969Z,19.30
2019-04-21T08:09:12.238Z,19.50
2019-04-21T08:11:37.792Z,19.70
2019-04-21T08:14:17.760Z,20.00
2019-04-21T08:16:51.077Z,20.30
2019-04-21T08:19:25.146Z,20.70
2019-04-21T08:22:03.702Z,21.00
2019-04-21T08:24:33.004Z,21.40
2019-04-21T08:27:04.938Z,21.70
2019-04-21T08:29:42.992Z,21.90
2019-04-21T08:32:11.028Z,22.10
2019-04-21T08:34:44.737Z,22.30
2019-04-21T08:37:12.368Z,22.40
2019-04-21T08:39:58.872Z,22.60
2019-04-21T08:42:18.495Z,22.70
2019-04-21T08:44:52.993Z,22.80
2019-04-21T08:47:25.621Z,22.90
2019-04-21T08:50:00.780Z,23.10
2019-04-21T08:55:18.377Z,23.40
2019-04-21T08:58:08.081Z,23.50
2019-04-21T09:01:02.392Z,23.70
2019-04-21T09:04:06.064Z,23.80
2019-04-21T09:06:55.577Z,23.90
2019-04-21T09:11:49.869Z,24.10
2019-04-21T09:14:21.113Z,24.20
2019-04-21T09:16:47.246Z,24.30
2019-04-21T09:19:35.462Z,24.50
2019-04-21T09:21:55.171Z,24.70
2019-04-21T09:24:29.345Z,24.80
2019-04-21T09:27:04.867Z,24.90
2019-04-21T09:29:28.715Z,25.10
2019-04-21T09:31:55.842Z,25.20
2019-04-21T09:34:35.906Z,25.20
2019-04-21T09:37:12.682Z,25.20
2019-04-21T09:39:33.278Z,25.20
2019-04-21T09:42:06.229Z,25.50
2019-04-21T09:44:40.896Z,25.80
2019-04-21T09:47:12.448Z,25.80
2019-04-21T09:49:45.120Z,26.00
2019-04-21T09:52:20.969Z,26.20
2019-04-21T09:55:00.811Z,26.40
2019-04-21T09:57:34.191Z,26.40
2019-04-21T10:00:02.138Z,26.50
2019-04-21T10:02:37.621Z,26.60
2019-04-21T10:05:02.031Z,26.80
2019-04-21T10:07:39.972Z,26.90
2019-04-21T10:10:10.477Z,27.20
2019-04-21T10:12:43.368Z,27.50
2019-04-21T10:15:14.891Z,27.50
2019-04-21T10:17:50.094Z,27.60
2019-04-21T10:20:22.374Z,27.70
2019-04-21T10:22:55.278Z,27.90
2019-04-21T10:25:28.456Z,28.00
2019-04-21T10:28:01.204Z,28.20
2019-04-21T10:30:34.761Z,28.70
2019-04-21T10:33:06.710Z,29.00
2019-04-21T10:35:39.270Z,29.20
2019-04-21T10:38:20.324Z,29.10
2019-04-21T10:40:43.749Z,29.40
2019-04-21T10:43:17.652Z,29.70
2019-04-21T10:45:48.828Z,29.80
2019-04-21T10:48:21.007Z,29.90
2019-04-21T10:50:52.787Z,30.10
2019-04-21T10:53:27.198Z,30.30
2019-04-21T10:56:11.464Z,30.10
2019-04-21T10:58:34.267Z,30.20
2019-04-21T11:01:10.745Z,30.70
2019-04-21T11:04:07.628Z,30.90
2019-04-21T11:06:38.688Z,30.60
2019-04-21T11:09:11.147Z,30.80
2019-04-21T11:11:45.011Z,31.00
2019-04-21T11:14:15.645Z,31.00
2019-04-21T11:16:48.035Z,30.60
2019-04-21T11:19:20.116Z,30.60
2019-04-21T11:21:52.593Z,31.10
2019-04-21T11:24:25.010Z,31.40
2019-04-21T11:26:58.272Z,31.90
2019-04-21T11:29:30.879Z,32.30
2019-04-21T11:32:03.025Z,32.60
2019-04-21T11:34:34.463Z,32.60
2019-04-21T11:37:08.147Z,32.40
2019-04-21T11:39:49.345Z,31.80
2019-04-21T11:42:17.737Z,31.70
2019-04-21T11:44:49.471Z,31.90
2019-04-21T11:47:26.420Z,32.10
2019-04-21T11:49:58.977Z,32.80
2019-04-21T11:52:31.038Z,33.50
2019-04-21T11:55:04.624Z,33.80
2019-04-21T11:57:40.130Z,34.30
2019-04-21T12:00:09.432Z,34.40
2019-04-21T12:02:41.552Z,34.30
2019-04-21T12:05:12.981Z,34.20
2019-04-21T12:07:45.132Z,33.90
2019-04-21T12:10:17.659Z,33.60
2019-04-21T12:12:49.142Z,33.50
2019-04-21T12:15:20.823Z,33.40
2019-04-21T12:17:52.228Z,33.50
2019-04-21T12:20:24.565Z,33.80
2019-04-21T12:22:56.983Z,34.00
2019-04-21T12:25:31.362Z,34.00
2019-04-21T12:28:03.666Z,34.00
2019-04-21T12:30:35.738Z,34.20
2019-04-21T12:33:14.017Z,34.40
2019-04-21T12:35:46.020Z,34.60
2019-04-21T12:38:29.332Z,35.10
2019-04-21T12:40:50.740Z,35.50
2019-04-21T12:43:22.281Z,35.90
2019-04-21T12:45:53.877Z,36.00
2019-04-21T12:48:26.205Z,35.50
2019-04-21T12:50:57.728Z,35.40
2019-04-21T12:53:29.705Z,35.30
2019-04-21T12:56:02.159Z,35.50
2019-04-21T12:58:33.537Z,35.80
2019-04-21T13:01:05.064Z,36.20
2019-04-21T13:03:37.530Z,36.10
2019-04-21T13:06:09.936Z,36.10
2019-04-21T13:08:49.555Z,36.10
2019-04-21T13:11:15.035Z,36.50
2019-04-21T13:13:46.465Z,36.50
2019-04-21T13:16:19.153Z,36.80
2019-04-21T13:18:51.229Z,36.80
2019-04-21T13:21:22.668Z,36.80
2019-04-21T13:23:54.764Z,36.30
2019-04-21T13:26:32.787Z,36.30
2019-04-21T13:29:00.491Z,36.20
2019-04-21T13:31:32.157Z,35.80
2019-04-21T13:34:04.157Z,35.80
2019-04-21T13:36:35.995Z,36.00
2019-04-21T13:40:04.304Z,36.50
2019-04-21T13:42:23.440Z,36.80
2019-04-21T13:44:44.648Z,37.20
2019-04-21T13:47:16.806Z,37.20
2019-04-21T13:49:49.559Z,37.30
2019-04-21T13:52:21.003Z,36.80
2019-04-21T13:54:53.713Z,36.50
2019-04-21T13:57:26.336Z,36.60
2019-04-21T13:59:59.152Z,36.80
2019-04-21T14:02:31.730Z,37.00
2019-04-21T14:05:03.483Z,37.20
2019-04-21T14:07:36.446Z,37.30
2019-04-21T14:10:10.511Z,37.10
2019-04-21T14:12:42.532Z,36.80
2019-04-21T14:15:15.075Z,37.10
2019-04-21T14:17:46.826Z,37.40
2019-04-21T14:20:19.580Z,37.30
2019-04-21T14:22:51.936Z,37.10
2019-04-21T14:25:23.890Z,36.70
2019-04-21T14:27:56.482Z,36.40
2019-04-21T14:30:30.403Z,36.10
2019-04-21T14:33:02.370Z,36.60
2019-04-21T14:35:34.797Z,37.10
2019-04-21T14:38:06.960Z,37.00
2019-04-21T14:40:38.801Z,37.10
2019-04-21T14:43:10.293Z,37.20
2019-04-21T14:45:52.736Z,36.90
2019-04-21T14:48:43.054Z,36.30
2019-04-21T14:51:43.239Z,36.20
2019-04-21T14:54:46.818Z,36.40
2019-04-21T14:57:18.901Z,36.60
2019-04-21T14:59:51.115Z,37.10
2019-04-21T15:02:22.586Z,37.20
2019-04-21T15:04:55.404Z,37.10
2019-04-21T15:07:27.576Z,37.20
2019-04-21T15:10:09.130Z,37.30
2019-04-21T15:12:32.084Z,37.00
2019-04-21T15:15:03.484Z,37.20
2019-04-21T15:17:35.959Z,37.40
2019-04-21T15:20:11.109Z,37.60
2019-04-21T15:22:42.035Z,37.80
2019-04-21T15:25:14.205Z,38.00
2019-04-21T15:27:46.657Z,38.20
2019-04-21T15:30:18.698Z,38.30
2019-04-21T15:32:50.608Z,38.50
2019-04-21T15:35:22.014Z,38.40
2019-04-21T15:37:53.733Z,38.60
2019-04-21T15:40:36.281Z,38.70
2019-04-21T15:42:58.290Z,38.60
2019-04-21T15:45:30.630Z,38.60
2019-04-21T15:48:02.254Z,38.90
2019-04-21T15:50:33.711Z,38.80
2019-04-21T15:53:07.764Z,38.70
2019-04-21T15:56:04.693Z,38.50
2019-04-21T15:58:46.434Z,38.40
2019-04-21T16:01:40.823Z,38.30
2019-04-21T16:04:12.647Z,38.40
2019-04-21T16:06:43.986Z,37.90
2019-04-21T16:09:20.037Z,37.70
2019-04-21T16:11:49.757Z,37.50
2019-04-21T16:14:22.640Z,37.70
2019-04-21T16:16:54.149Z,37.50
2019-04-21T16:19:27.074Z,37.30
2019-04-21T16:21:59.082Z,37.20
2019-04-21T16:24:31.657Z,37.20
2019-04-21T16:27:05.313Z,37.10
2019-04-21T16:29:37.337Z,36.70
2019-04-21T16:32:09.161Z,36.60
2019-04-21T16:34:49.230Z,36.50
2019-04-21T16:37:13.918Z,36.60
2019-04-21T16:39:45.417Z,36.10
2019-04-21T16:42:18.228Z,36.10
2019-04-21T16:44:50.727Z,36.00
2019-04-21T16:47:22.047Z,35.70
2019-04-21T16:49:53.936Z,35.40
2019-04-21T16:52:40.293Z,35.30
2019-04-21T16:55:26.785Z,35.10
2019-04-21T16:58:22.142Z,35.00
2019-04-21T17:01:04.547Z,34.90
2019-04-21T17:03:30.762Z,34.70
2019-04-21T17:06:04.686Z,34.20
2019-04-21T17:08:36.685Z,34.00
2019-04-21T17:11:14.078Z,33.60
2019-04-21T17:13:42.169Z,32.80
2019-04-21T17:16:42.102Z,31.10
2019-04-21T17:18:59.538Z,29.80
2019-04-21T17:21:21.531Z,28.70
2019-04-21T17:23:54.501Z,27.70
2019-04-21T17:26:26.926Z,27.10
2019-04-21T17:29:00.594Z,26.70
2019-04-21T17:31:32.003Z,26.30
2019-04-21T17:34:10.285Z,26.00
2019-04-21T17:36:37.130Z,25.60
2019-04-21T17:39:10.990Z,25.20
2019-04-21T17:42:00.357Z,24.90
2019-04-21T17:44:17.219Z,24.40
2019-04-21T17:46:54.476Z,23.90
2019-04-21T17:49:23.029Z,23.40
2019-04-21T17:52:16.831Z,23.00
2019-04-21T17:54:53.888Z,22.70
2019-04-21T17:57:42.605Z,22.40
2019-04-21T18:00:25.878Z,22.00
2019-04-21T18:03:07.833Z,21.80
2019-04-21T18:05:40.984Z,21.40
2019-04-21T18:08:19.071Z,21.20
2019-04-21T18:10:45.785Z,20.90
2019-04-21T18:13:08.785Z,20.70
2019-04-21T18:15:51.980Z,20.40
2019-04-21T18:18:10.411Z,20.20
2019-04-21T18:20:44.699Z,19.90
2019-04-21T18:23:47.243Z,19.60
2019-04-21T18:26:24.704Z,19.40
2019-04-21T18:28:46.554Z,19.10
2019-04-21T18:31:18.501Z,18.90
2019-04-21T18:34:27.306Z,18.70
2019-04-21T18:37:04.807Z,18.40
2019-04-21T18:40:02.483Z,18.20
2019-04-21T18:42:45.402Z,17.90
2019-04-21T18:45:55.387Z,17.70
2019-04-21T18:48:19.077Z,17.50
2019-04-21T18:51:12.447Z,17.30
2019-04-21T18:54:34.088Z,17.00
2019-04-21T18:56:52.612Z,16.80
2019-04-21T18:59:22.151Z,16.60
2019-04-21T19:01:57.794Z,16.50
2019-04-21T19:04:28.766Z,16.30
2019-04-21T19:07:06.611Z,16.20
2019-04-21T19:12:25.331Z,15.90
2019-04-21T19:14:52.198Z,15.70
2019-04-21T19:20:08.901Z,15.50
2019-04-21T19:22:32.853Z,15.30
2019-04-21T19:25:07.300Z,15.30
2019-04-21T19:27:40.214Z,15.30
2019-04-21T19:30:26.901Z,15.10
2019-04-21T19:32:45.451Z,15.00
2019-04-21T19:35:02.401Z,14.90
2019-04-21T19:37:43.193Z,14.80
2019-04-21T19:40:29.053Z,14.70
2019-04-21T19:42:55.212Z,14.60
2019-04-21T19:45:27.978Z,14.50
2019-04-21T19:48:08.148Z,14.40
2019-04-21T19:50:40.725Z,14.30
2019-04-21T19:53:02.986Z,14.20
2019-04-21T19:55:27.786Z,14.10
2019-04-21T19:57:59.345Z,14.00
2019-04-21T20:00:30.874Z,13.90
2019-04-21T20:03:03.061Z,13.80
2019-04-21T20:05:43.558Z,13.80
2019-04-21T20:08:23.365Z,13.70
2019-04-21T20:10:59.350Z,13.60
2019-04-21T20:13:48.869Z,13.50
2019-04-21T20:16:06.921Z,13.50
2019-04-21T20:18:31.724Z,13.40
2019-04-21T20:20:54.461Z,13.30
2019-04-21T20:23:31.871Z,13.20
2019-04-21T20:26:02.704Z,13.10
2019-04-21T20:28:45.532Z,13.00
2019-04-21T20:31:24.939Z,12.90
2019-04-21T20:33:59.930Z,12.80
2019-04-21T20:36:37.731Z,12.80
2019-04-21T20:38:54.981Z,12.70
2019-04-21T20:41:33.855Z,12.60
2019-04-21T20:44:11.932Z,12.50
2019-04-21T20:46:39.818Z,12.40
2019-04-21T20:49:14.207Z,12.40
2019-04-21T20:52:01.180Z,12.30
2019-04-21T20:54:27.089Z,12.20
2019-04-21T20:56:57.819Z,12.10
2019-04-21T20:59:27.922Z,12.00
2019-04-21T21:02:01.659Z,12.00
2019-04-21T21:04:28.188Z,11.90
2019-04-21T21:07:20.880Z,11.80
2019-04-21T21:09:45.013Z,11.70
2019-04-21T21:12:25.732Z,11.70
2019-04-21T21:14:42.590Z,11.70
2019-04-21T21:17:33.979Z,11.60
2019-04-21T21:19:53.600Z,11.60
2019-04-21T21:22:22.724Z,11.50
2019-04-21T21:24:57.119Z,11.50
2019-04-21T21:27:27.967Z,11.50
2019-04-21T21:30:05.609Z,11.40
2019-04-21T21:32:37.462Z,11.40
2019-04-21T21:35:13.238Z,11.30
2019-04-21T21:37:49.210Z,11.30
2019-04-21T21:40:22.887Z,11.20
2019-04-21T21:42:38.502Z,11.10
2019-04-21T21:45:15.602Z,11.00
2019-04-21T21:48:01.223Z,11.00
2019-04-21T21:50:26.051Z,10.90
2019-04-21T21:52:59.905Z,10.80
2019-04-21T21:55:23.715Z,10.70
2019-04-21T21:58:01.187Z,10.60
2019-04-21T22:00:30.220Z,10.50
2019-04-21T22:03:13.642Z,10.40
2019-04-21T22:05:46.798Z,10.30
2019-04-21T22:08:10.275Z,10.20
2019-04-21T22:10:43.184Z,10.10
2019-04-21T22:13:19.503Z,10.10
2019-04-21T22:15:55.598Z,10.00
2019-04-21T22:18:39.149Z,10.00
2019-04-21T22:21:07.704Z,9.90
2019-04-21T22:23:39.940Z,9.90
2019-04-21T22:26:01.157Z,9.80
2019-04-21T22:28:33.797Z,9.80
2019-04-21T22:31:13.152Z,9.70
2019-04-21T22:33:47.935Z,9.70
2019-04-21T22:36:26.489Z,9.70
2019-04-21T22:39:05.213Z,9.60
2019-04-21T22:41:26.333Z,9.60
2019-04-21T22:43:53.802Z,9.50
2019-04-21T22:46:24.597Z,9.40
2019-04-21T22:48:59.716Z,9.40
2019-04-21T22:51:37.119Z,9.30
2019-04-21T22:54:02.046Z,9.30
2019-04-21T22:56:36.104Z,9.20
2019-04-21T22:59:14.690Z,9.20
2019-04-21T23:01:46.646Z,9.10
2019-04-21T23:04:15.859Z,9.10
2019-04-21T23:06:48.761Z,9.00
2019-04-21T23:09:20.304Z,9.00
2019-04-21T23:11:55.807Z,8.90
2019-04-21T23:14:25.865Z,8.90
2019-04-21T23:17:22.958Z,8.90
2019-04-21T23:19:44.893Z,8.80
2019-04-21T23:22:21.477Z,8.80
2019-04-21T23:24:59.301Z,8.70
2019-04-21T23:27:23.822Z,8.60
2019-04-21T23:30:08.172Z,8.60
2019-04-21T23:32:30.578Z,8.50
2019-04-21T23:34:51.102Z,8.50
2019-04-21T23:37:25.735Z,8.40
2019-04-21T23:40:02.723Z,8.40
2019-04-21T23:42:36.160Z,8.30
2019-04-21T23:45:04.687Z,8.30
2019-04-21T23:47:48.864Z,8.20
2019-04-21T23:50:23.535Z,8.20
2019-04-21T23:52:43.605Z,8.10
2019-04-21T23:55:17.037Z,8.00
2019-04-21T23:57:50.103Z,8.00
